Time;durP1;ratioP1;P1;durP2;ratioP2;P2;SDS_P1;SDS_P2;PMS_P1;PMS_P2;Temp;Humidity;BMP_temperature;BMP_pressure;BME280_temperature;BME280_humidity;BME280_pressure;Samples;Min_cycle;Max_cycle;Signal;HPM_P1;HPM_P2
2023/05/16 00:00:08;;;;;;;21.17;6.25;;;12.90;99.90;;;13.01;68.27;101933.31;4926909;29;20052;-67
2023/05/16 00:02:38;;;;;;;20.77;6.45;;;12.80;99.90;;;12.96;68.68;101929.78;4929315;29;20043;-67
2023/05/16 00:05:09;;;;;;;17.85;6.45;;;12.70;99.90;;;12.94;68.40;101920.03;4928325;29;20055;-67
2023/05/16 00:07:39;;;;;;;20.20;5.63;;;12.80;99.90;;;12.96;68.22;101931.53;4927669;29;20079;-67
2023/05/16 00:10:08;;;;;;;19.35;6.00;;;12.80;99.90;;;12.92;68.32;101935.97;4943682;29;20143;-67
2023/05/16 00:12:38;;;;;;;18.88;6.00;;;12.70;99.90;;;12.68;68.08;101923.50;4927266;29;20076;-68
2023/05/16 00:15:11;;;;;;;23.33;6.05;;;12.60;99.90;;;12.68;68.58;101930.56;4926405;29;20589;-68
2023/05/16 00:17:42;;;;;;;25.75;5.80;;;12.50;99.90;;;12.84;68.54;101927.09;4929220;29;20127;-68
2023/05/16 00:20:12;;;;;;;19.27;5.63;;;12.60;99.90;;;12.80;68.45;101937.69;4928028;29;20070;-68
2023/05/16 00:22:42;;;;;;;20.25;5.75;;;12.60;99.90;;;12.77;68.02;101932.38;4927435;29;20056;-68
2023/05/16 00:25:11;;;;;;;20.43;5.77;;;12.60;99.90;;;12.76;68.06;101928.81;4929453;29;20094;-68
2023/05/16 00:27:39;;;;;;;19.95;5.35;;;12.60;99.90;;;12.82;68.55;101938.56;4933202;29;20052;-68
2023/05/16 00:30:10;;;;;;;16.52;5.28;;;12.60;99.90;;;12.86;68.01;101935.94;4922318;29;20052;-68
2023/05/16 00:32:39;;;;;;;21.85;6.18;;;12.60;99.90;;;12.66;69.12;101932.31;4925269;29;20112;-68
2023/05/16 00:35:09;;;;;;;18.88;5.50;;;12.50;99.90;;;12.74;68.78;101930.59;4928741;29;20091;-68
2023/05/16 00:37:38;;;;;;;23.08;6.78;;;12.50;99.90;;;12.03;68.86;101818.84;4942116;29;20056;-68
2023/05/16 00:40:09;;;;;;;19.25;6.05;;;12.40;99.90;;;12.73;69.14;101934.13;4927864;29;20047;-67
2023/05/16 00:42:38;;;;;;;19.35;5.22;;;12.50;99.90;;;12.45;70.06;101940.19;4927208;29;20477;-67
2023/05/16 00:45:09;;;;;;;16.58;5.38;;;12.20;99.90;;;12.47;70.58;101941.97;4926498;29;20128;-68
2023/05/16 00:47:37;;;;;;;20.42;5.97;;;12.20;99.90;;;12.62;70.69;101936.72;4929435;29;20813;-67
2023/05/16 00:50:07;;;;;;;15.60;5.70;;;12.40;99.90;;;12.48;70.80;101938.47;4926111;29;20147;-67
2023/05/16 00:52:35;;;;;;;19.77;5.63;;;12.20;99.90;;;12.39;70.57;101930.44;4928853;29;20052;-68
2023/05/16 00:55:05;;;;;;;19.67;5.38;;;12.30;99.90;;;12.18;71.47;101934.72;4926809;29;20080;-67
2023/05/16 00:57:36;;;;;;;;;;;12.00;99.90;;;12.46;71.54;101934.00;4942686;29;20148;-68
2023/05/16 01:00:08;;;;;;;20.02;5.43;;;12.20;99.90;;;12.48;71.08;101957.03;4927729;29;19954;-67
2023/05/16 01:02:38;;;;;;;18.17;5.60;;;12.20;99.90;;;11.93;70.53;101839.97;4925555;29;20103;-68
2023/05/16 01:05:08;;;;;;;19.65;5.72;;;12.30;99.90;;;12.57;70.65;101941.16;4929640;29;20070;-68
2023/05/16 01:07:36;;;;;;;15.23;5.67;;;12.40;99.90;;;12.33;71.07;101932.19;4925856;29;20048;-68
2023/05/16 01:10:09;;;;;;;16.83;5.75;;;12.20;99.90;;;12.26;71.56;101930.34;4942587;28;20054;-67
2023/05/16 01:12:47;;;;;;;15.27;5.03;;;12.10;99.90;;;12.27;72.11;101932.16;4938453;29;20104;-67
2023/05/16 01:15:22;;;;;;;16.27;5.55;;;12.10;99.90;;;12.41;71.72;101928.66;4928941;29;20044;-67
2023/05/16 01:17:57;;;;;;;18.45;5.20;;;12.20;99.90;;;12.52;71.60;101934.91;4925978;29;20051;-67
2023/05/16 01:20:38;;;;;;;18.33;5.13;;;12.20;99.90;;;12.54;71.09;101934.94;4926187;29;20055;-67
2023/05/16 01:23:25;;;;;;;21.55;5.68;;;12.30;99.90;;;12.46;71.49;101931.34;4925179;29;20091;-67
2023/05/16 01:26:17;;;;;;;18.45;5.10;;;12.20;99.90;;;12.36;72.12;101933.06;4932425;29;20048;-67
2023/05/16 01:28:46;;;;;;;19.05;5.15;;;12.10;99.90;;;12.42;71.81;101937.53;4927536;29;20040;-67
2023/05/16 01:31:16;;;;;;;20.85;5.68;;;12.10;99.90;;;12.55;71.47;101931.38;4925547;28;20048;-68
2023/05/16 01:33:45;;;;;;;18.48;5.65;;;12.30;99.90;;;12.44;71.97;101931.34;4943386;29;20051;-68
2023/05/16 01:36:25;;;;;;;16.10;5.38;;;12.20;99.90;;;12.57;71.94;101943.78;4925221;29;20091;-67
2023/05/16 01:39:09;;;;;;;14.85;5.28;;;12.30;99.90;;;12.62;71.70;101938.50;4926470;29;20047;-67
2023/05/16 01:41:52;;;;;;;20.17;6.00;;;12.30;99.90;;;12.37;70.95;101944.56;4925423;29;20052;-68
2023/05/16 01:44:29;;;;;;;21.17;5.93;;;12.20;99.90;;;12.21;71.46;101927.69;4940308;28;20076;-67
2023/05/16 01:47:02;;;;;;;18.98;5.32;;;12.10;99.90;;;11.44;71.66;101806.97;4925470;29;20048;-67
2023/05/16 01:49:36;;;;;;;14.30;4.75;;;12.00;99.90;;;12.31;72.01;101934.81;4941438;29;20058;-67
2023/05/16 01:52:09;;;;;;;16.30;5.18;;;12.00;99.90;;;12.11;72.90;101940.88;4927205;29;20045;-67
2023/05/16 01:54:42;;;;;;;19.70;5.78;;;11.90;99.90;;;12.12;73.40;101946.19;4939463;29;20103;-67
2023/05/16 01:57:13;;;;;;;16.48;5.18;;;11.80;99.90;;;12.20;73.35;101936.50;4940052;29;20132;-67
2023/05/16 01:59:43;;;;;;;19.75;5.20;;;11.90;99.90;;;12.09;73.31;101939.97;4941413;29;20489;-67
2023/05/16 02:02:12;;;;;;;15.75;5.38;;;11.80;99.90;;;12.23;72.84;101935.66;4926536;29;20052;-68
2023/05/16 02:04:40;;;;;;;19.55;5.63;;;11.90;99.90;;;12.36;72.16;101946.34;4925690;29;20044;-67
2023/05/16 02:07:09;;;;;;;20.83;5.78;;;12.10;99.90;;;12.45;71.91;101949.03;4941870;29;20076;-67
2023/05/16 02:09:38;;;;;;;16.23;5.60;;;12.20;99.90;;;12.44;72.08;101949.94;4924929;29;20064;-67
2023/05/16 02:12:08;;;;;;;19.08;5.65;;;12.20;99.90;;;12.40;72.27;101952.56;4928160;29;20142;-67
2023/05/16 02:14:37;;;;;;;16.30;5.40;;;12.20;99.90;;;12.37;71.96;101944.56;4939173;29;20048;-67
2023/05/16 02:17:07;;;;;;;20.08;5.35;;;12.20;99.90;;;12.12;72.35;101951.47;4942027;28;20066;-68
2023/05/16 02:19:36;;;;;;;20.80;5.97;;;12.00;99.90;;;12.10;72.33;101949.72;4921178;29;20075;-67
2023/05/16 02:22:05;;;;;;;18.38;5.75;;;11.90;99.90;;;11.93;72.90;101956.66;4926171;29;20059;-67
2023/05/16 02:24:33;;;;;;;19.60;5.18;;;11.80;99.90;;;12.19;72.78;101953.31;4925760;29;20111;-68
2023/05/16 02:27:02;;;;;;;15.02;5.20;;;11.90;99.90;;;12.00;72.32;101931.97;4926781;29;20138;-67
2023/05/16 02:29:31;;;;;;;14.43;5.43;;;11.90;99.90;;;12.18;72.46;101961.25;4924775;29;20457;-67
2023/05/16 02:32:00;;;;;;;18.23;5.05;;;11.90;99.90;;;12.24;72.45;101953.31;4927130;29;20503;-67
2023/05/16 02:34:29;;;;;;;17.08;5.85;;;12.00;99.90;;;11.97;72.62;101958.44;4938783;29;20493;-67
2023/05/16 02:36:57;;;;;;;20.23;5.60;;;11.70;99.90;;;11.80;71.54;101955.69;4927312;29;20051;-67
2023/05/16 02:39:25;;;;;;;14.93;5.13;;;11.70;99.90;;;11.93;72.13;101964.59;4924771;29;20493;-67
2023/05/16 02:41:54;;;;;;;18.48;5.50;;;11.70;99.90;;;12.05;72.43;101957.63;4941286;28;20389;-68
2023/05/16 02:44:22;;;;;;;15.77;5.13;;;11.70;99.90;;;12.23;71.51;101962.19;4939764;29;20412;-68
2023/05/16 02:46:50;;;;;;;15.75;5.28;;;11.90;99.90;;;12.02;72.30;101959.38;4925820;29;20075;-68
2023/05/16 02:49:20;;;;;;;16.10;5.28;;;11.80;99.90;;;11.86;72.33;101965.44;4925950;29;20044;-67
2023/05/16 02:51:49;;;;;;;23.40;5.95;;;11.70;99.90;;;11.98;72.96;101968.19;4939704;29;20404;-68
2023/05/16 02:54:18;;;;;;;23.33;6.05;;;11.70;99.90;;;11.69;73.24;101942.31;4926967;29;20496;-67
2023/05/16 02:56:46;;;;;;;17.92;5.45;;;11.60;99.90;;;11.91;73.08;101969.91;4924098;29;20048;-67
2023/05/16 02:59:14;;;;;;;20.25;6.28;;;11.70;99.90;;;11.90;73.05;101964.59;4938366;29;20143;-68
2023/05/16 03:01:43;;;;;;;17.83;5.38;;;11.60;99.90;;;11.75;73.32;101968.88;4927585;29;20054;-67
2023/05/16 03:04:11;;;;;;;20.98;5.47;;;11.50;99.90;;;11.68;73.84;101967.06;4924568;29;20048;-67
2023/05/16 03:06:41;;;;;;;14.50;4.93;;;11.40;99.90;;;11.84;72.97;101967.19;4926314;29;20540;-67
2023/05/16 03:09:09;;;;;;;16.10;4.90;;;11.60;99.90;;;11.74;72.90;101977.72;4925368;29;20044;-67
2023/05/16 03:11:38;;;;;;;16.38;5.35;;;11.50;99.90;;;11.95;72.42;101981.41;4931683;29;20044;-67
2023/05/16 03:14:07;;;;;;;19.75;5.65;;;11.60;99.90;;;11.88;72.70;101971.66;4926137;29;20193;-67
2023/05/16 03:16:37;;;;;;;15.50;5.32;;;11.70;99.90;;;11.73;72.95;101975.94;4939221;28;20055;-67
2023/05/16 03:19:06;;;;;;;22.05;5.40;;;11.60;99.90;;;11.76;73.01;101980.38;4927094;29;20044;-67
2023/05/16 03:21:34;;;;;;;12.02;5.25;;;11.50;99.90;;;11.87;73.07;101977.81;4923698;29;20044;-67
2023/05/16 03:24:05;;;;;;;15.25;5.10;;;11.50;99.90;;;12.09;72.51;101985.06;4938353;29;20052;-67
2023/05/16 03:26:33;;;;;;;17.73;5.32;;;11.80;99.90;;;12.25;71.84;101984.31;4926515;29;20062;-67
2023/05/16 03:29:02;;;;;;;13.35;5.50;;;12.00;99.90;;;12.05;72.22;101988.56;4939557;29;20075;-67
2023/05/16 03:31:32;;;;;;;18.58;5.75;;;11.80;99.90;;;11.97;71.93;101985.84;4925554;29;20126;-67
2023/05/16 03:34:00;;;;;;;15.68;5.60;;;11.70;99.90;;;11.83;73.13;101989.28;4925809;29;20059;-67
2023/05/16 03:36:29;;;;;;;16.52;4.93;;;11.60;99.90;;;12.07;73.12;101984.16;4924559;28;20051;-67
2023/05/16 03:38:57;;;;;;;21.88;5.78;;;11.80;99.90;;;11.60;74.54;101989.03;4940917;29;20052;-67
2023/05/16 03:41:27;;;;;;;17.38;5.70;;;11.50;99.90;;;11.81;74.40;101985.75;4938633;29;20516;-68
2023/05/16 03:43:55;;;;;;;21.30;5.72;;;11.60;99.90;;;12.00;74.42;101996.47;4926043;29;20056;-67
2023/05/16 03:46:23;;;;;;;16.95;5.25;;;11.70;99.90;;;11.72;73.79;101987.44;4927252;29;20442;-68
2023/05/16 03:48:52;;;;;;;14.85;4.75;;;11.60;99.90;;;11.68;74.56;101995.31;4929820;29;20048;-67
2023/05/16 03:51:20;;;;;;;13.85;5.68;;;11.50;99.90;;;11.83;73.97;101992.81;4927719;29;20080;-68
2023/05/16 03:53:48;;;;;;;14.23;5.07;;;11.50;99.90;;;11.94;73.42;101992.91;4929046;29;20044;-68
2023/05/16 03:56:17;;;;;;;17.65;5.57;;;11.70;99.90;;;12.05;73.54;101994.75;4928490;29;20052;-68
2023/05/16 03:58:47;;;;;;;21.67;5.57;;;11.80;99.90;;;12.14;72.76;101997.47;4928342;29;20043;-68
2023/05/16 04:01:15;;;;;;;20.33;4.57;;;11.90;99.90;;;12.22;72.31;102000.19;4924883;29;20052;-68
2023/05/16 04:03:43;;;;;;;13.88;5.15;;;12.10;99.90;;;12.02;72.41;101999.16;4929408;29;20327;-67
2023/05/16 04:06:12;;;;;;;17.05;5.60;;;11.90;99.90;;;11.86;73.25;101997.25;4941686;28;20071;-67
2023/05/16 04:08:43;;;;;;;18.10;5.57;;;11.70;99.90;;;11.72;73.20;101999.78;4930159;29;20040;-67
2023/05/16 04:11:12;;;;;;;10.40;4.85;;;11.50;99.90;;;11.67;73.26;102002.38;4927165;29;20130;-67
2023/05/16 04:13:40;;;;;;;14.07;4.80;;;11.50;99.90;;;11.83;73.92;102007.84;4929140;29;20035;-67
2023/05/16 04:16:10;;;;;;;14.82;5.53;;;11.60;99.90;;;11.86;72.80;102002.56;4942274;29;20083;-67
2023/05/16 04:18:38;;;;;;;19.90;5.83;;;11.60;99.90;;;11.97;72.65;102003.53;4928196;29;20070;-67
2023/05/16 04:21:09;;;;;;;16.38;5.28;;;11.70;99.90;;;12.06;71.46;102000.97;4928502;29;20052;-68
2023/05/16 04:23:37;;;;;;;13.20;5.25;;;11.80;99.90;;;11.98;71.19;101979.66;4926897;29;20052;-67
2023/05/16 04:26:06;;;;;;;14.73;5.07;;;11.90;99.90;;;12.18;70.30;102011.63;4929808;29;20047;-67
2023/05/16 04:28:35;;;;;;;14.65;4.75;;;12.00;99.90;;;11.97;69.70;102016.78;4926164;29;20523;-68
2023/05/16 04:31:03;;;;;;;15.75;4.82;;;11.90;99.90;;;11.97;70.32;102006.19;4926166;29;20126;-67
2023/05/16 04:33:33;;;;;;;15.68;4.55;;;11.80;99.90;;;12.00;70.11;102007.09;4928975;29;20036;-67
2023/05/16 04:36:02;;;;;;;13.73;4.50;;;11.80;99.90;;;12.01;69.98;102007.97;4927095;29;20079;-67
2023/05/16 04:38:31;;;;;;;16.67;5.22;;;11.80;99.90;;;11.97;69.47;102008.81;4928073;29;20040;-67
2023/05/16 04:41:00;;;;;;;10.32;4.10;;;11.90;99.90;;;12.17;69.95;102015.19;4927739;29;20052;-67
2023/05/16 04:43:29;;;;;;;19.88;5.25;;;11.90;99.90;;;12.02;70.38;102015.94;4926964;29;20063;-68
2023/05/16 04:45:58;;;;;;;12.90;4.95;;;11.90;99.90;;;12.22;70.38;102018.75;4928833;29;20044;-67
2023/05/16 04:48:26;;;;;;;16.05;4.88;;;12.00;99.90;;;11.77;70.31;101935.31;4926577;29;20051;-67
2023/05/16 04:50:56;;;;;;;13.93;4.82;;;12.10;99.90;;;12.29;70.45;102024.09;4929267;29;20182;-67
2023/05/16 04:53:25;;;;;;;15.47;5.03;;;12.10;99.90;;;12.16;71.57;102022.25;4928755;29;20043;-67
2023/05/16 04:55:53;;;;;;;15.07;5.13;;;11.90;99.90;;;12.43;70.78;102034.81;4925402;29;20722;-68
2023/05/16 04:58:22;;;;;;;16.45;4.97;;;12.20;99.90;;;12.46;70.44;102030.44;4928245;29;20099;-67
2023/05/16 05:00:51;;;;;;;13.43;4.30;;;12.30;99.90;;;11.86;70.42;101896.50;4927261;29;20504;-67
2023/05/16 05:03:20;;;;;;;15.40;4.75;;;12.40;99.90;;;12.49;70.50;102032.22;4942008;28;20087;-67
2023/05/16 05:05:49;;;;;;;10.38;5.00;;;12.40;99.90;;;12.45;70.01;102033.06;4927803;29;20115;-68
2023/05/16 05:08:19;;;;;;;14.40;4.97;;;12.30;99.90;;;12.48;70.72;102038.41;4926576;29;20044;-68
2023/05/16 05:10:47;;;;;;;18.33;4.80;;;12.30;99.90;;;12.30;71.39;102035.63;4928940;29;20090;-67
2023/05/16 05:13:16;;;;;;;15.93;4.97;;;12.20;99.90;;;12.22;71.90;102034.66;4939925;28;20050;-68
2023/05/16 05:15:44;;;;;;;14.02;4.63;;;12.10;99.90;;;12.38;71.81;102045.41;4925417;29;20111;-68
2023/05/16 05:18:12;;;;;;;13.85;5.25;;;12.20;99.90;;;12.54;71.25;102041.09;4928279;29;20048;-67
2023/05/16 05:20:41;;;;;;;10.98;4.47;;;12.30;99.90;;;12.78;70.69;102043.00;4926029;29;20048;-67
2023/05/16 05:23:09;;;;;;;15.38;4.82;;;12.60;99.90;;;12.86;70.27;102044.81;4927404;29;20060;-67
2023/05/16 05:25:39;;;;;;;15.55;4.40;;;12.70;99.90;;;12.94;69.68;102048.41;4926699;29;20047;-67
2023/05/16 05:28:08;;;;;;;17.55;5.35;;;12.70;99.90;;;12.80;69.43;102042.13;4926555;29;20074;-67
2023/05/16 05:30:36;;;;;;;13.07;4.57;;;12.70;99.90;;;12.76;69.33;102048.28;4927528;29;20050;-67
2023/05/16 05:33:05;;;;;;;10.35;4.53;;;12.70;99.90;;;12.76;69.08;102048.28;4925656;29;20078;-67
2023/05/16 05:35:33;;;;;;;11.40;5.07;;;12.70;99.90;;;12.56;69.17;102057.94;4928120;29;20134;-67
2023/05/16 05:38:01;;;;;;;13.63;4.22;;;12.40;99.90;;;12.82;68.98;102056.31;4924843;29;20135;-67
2023/05/16 05:40:30;;;;;;;12.93;4.57;;;12.60;99.90;;;12.88;68.61;102052.78;4939719;29;20051;-68
2023/05/16 05:42:59;;;;;;;13.27;4.53;;;12.60;99.90;;;12.91;68.93;102056.34;4928171;29;20098;-68
2023/05/16 05:45:28;;;;;;;11.65;4.95;;;12.70;99.90;;;13.02;69.19;102065.28;4928489;29;20079;-68
2023/05/16 05:47:56;;;;;;;15.23;5.03;;;12.80;99.90;;;13.06;68.68;102061.78;4925982;29;20095;-68
2023/05/16 05:50:25;;;;;;;15.85;4.50;;;12.90;99.90;;;13.01;69.28;102051.97;4926370;29;20043;-67
2023/05/16 05:52:55;;;;;;;12.75;4.18;;;12.80;99.90;;;12.91;70.22;102064.31;4926643;29;20501;-67
2023/05/16 05:55:23;;;;;;;13.40;4.53;;;12.70;99.90;;;13.02;69.95;102067.94;4925626;29;20123;-67
2023/05/16 05:57:52;;;;;;;13.05;4.90;;;12.80;99.90;;;13.15;70.04;102074.19;4942330;29;20040;-67
2023/05/16 06:00:22;;;;;;;13.73;5.50;;;12.90;99.90;;;13.33;70.37;102067.22;4924575;29;20524;-68
2023/05/16 06:02:50;;;;;;;15.00;4.75;;;13.10;99.90;;;13.23;69.22;102076.03;4924633;29;20071;-67
2023/05/16 06:05:19;;;;;;;9.30;4.35;;;13.10;99.90;;;13.34;68.56;102078.69;4927032;29;20134;-67
2023/05/16 06:07:48;;;;;;;16.17;5.15;;;13.20;99.90;;;13.26;68.56;102064.50;4925537;29;20173;-67
2023/05/16 06:10:17;;;;;;;12.20;4.57;;;13.20;99.90;;;13.04;70.70;102073.28;4926436;29;20099;-67
2023/05/16 06:12:45;;;;;;;14.68;4.55;;;12.90;99.90;;;13.22;69.83;102084.00;4925945;29;20412;-67
2023/05/16 06:15:13;;;;;;;14.63;4.43;;;13.00;99.90;;;12.93;69.36;102075.81;4925673;29;20054;-67
2023/05/16 06:17:43;;;;;;;17.10;5.38;;;12.90;99.90;;;12.82;69.68;102087.25;4926905;29;20393;-67
2023/05/16 06:20:12;;;;;;;14.33;4.90;;;12.70;99.90;;;13.02;69.93;102083.88;4924830;29;20048;-67
2023/05/16 06:22:41;;;;;;;11.18;4.50;;;12.80;99.90;;;13.30;69.31;102087.53;4927366;29;20054;-68
2023/05/16 06:25:10;;;;;;;12.80;4.72;;;13.00;99.90;;;13.52;68.94;102087.66;4924139;29;20044;-68
2023/05/16 06:27:38;;;;;;;10.68;4.50;;;13.30;99.90;;;13.43;68.60;102087.59;4927265;29;20428;-68
2023/05/16 06:30:08;;;;;;;10.43;4.22;;;13.20;99.90;;;13.63;67.94;102086.78;4924839;29;20051;-68
2023/05/16 06:32:37;;;;;;;16.05;4.75;;;13.40;99.90;;;13.80;67.98;102069.09;4926254;29;20103;-67
2023/05/16 06:35:08;;;;;;;11.90;4.72;;;13.60;99.90;;;14.07;67.09;102091.28;4925819;29;20078;-68
2023/05/16 06:37:36;;;;;;;9.48;3.95;;;13.90;99.90;;;14.21;65.89;102093.94;4925257;29;20184;-68
2023/05/16 06:40:06;;;;;;;9.95;3.80;;;14.00;99.90;;;14.21;65.77;102102.84;4926625;29;20052;-68
2023/05/16 06:42:35;;;;;;;11.27;4.22;;;14.10;99.90;;;13.71;65.57;102096.56;4924482;29;20128;-67
2023/05/16 06:45:04;;;;;;;12.57;4.78;;;13.70;99.90;;;13.46;67.04;102106.22;4923960;29;20051;-68
2023/05/16 06:47:32;;;;;;;12.07;4.28;;;13.40;99.90;;;13.81;66.54;102103.66;4924316;29;20068;-67
2023/05/16 06:50:00;;;;;;;10.15;4.10;;;13.60;99.90;;;13.95;66.45;102103.69;4926789;29;20047;-67
2023/05/16 06:52:30;;;;;;;11.73;4.13;;;13.70;99.90;;;14.06;65.82;102104.59;4939435;29;20050;-68
2023/05/16 06:54:59;;;;;;;10.55;4.32;;;13.80;99.90;;;13.87;63.97;102101.03;4925834;29;20130;-67
2023/05/16 06:57:28;;;;;;;10.70;4.18;;;13.70;99.90;;;13.96;64.41;102109.00;4925904;29;20048;-67
2023/05/16 06:59:56;;;;;;;8.98;3.83;;;13.80;99.90;;;14.16;64.29;102103.72;4925347;29;20066;-67
2023/05/16 07:02:24;;;;;;;12.38;4.07;;;13.90;99.90;;;14.28;63.79;102104.66;4926767;29;20087;-68
2023/05/16 07:04:54;;;;;;;10.45;4.00;;;14.10;99.90;;;14.06;63.79;102065.56;4924515;29;20044;-68
2023/05/16 07:07:23;;;;;;;12.20;4.65;;;14.20;99.90;;;14.45;63.72;102109.97;4927297;29;20055;-68
2023/05/16 07:09:53;;;;;;;11.88;4.70;;;14.30;99.90;;;14.63;63.17;102122.38;4927356;29;20047;-67
2023/05/16 07:12:21;;;;;;;11.57;4.00;;;14.50;99.90;;;14.75;62.66;102119.72;4926464;29;20047;-68
2023/05/16 07:14:49;;;;;;;11.70;4.60;;;14.60;99.90;;;14.57;61.54;102115.28;4924698;29;20063;-68
2023/05/16 07:17:18;;;;;;;8.88;4.88;;;14.60;99.90;;;14.50;63.32;102115.31;4940362;29;20067;-68
2023/05/16 07:19:46;;;;;;;13.65;4.75;;;14.40;99.90;;;13.70;64.92;102035.41;4928019;29;20429;-68
2023/05/16 07:22:15;;;;;;;9.30;4.22;;;14.00;99.90;;;14.55;64.91;102135.72;4928246;29;20391;-68
2023/05/16 07:24:43;;;;;;;14.50;4.53;;;14.30;99.90;;;14.48;63.48;102128.59;4929118;29;20533;-68
2023/05/16 07:27:13;;;;;;;11.05;4.30;;;14.30;99.90;;;14.24;62.16;102126.81;4941914;28;20100;-68
2023/05/16 07:29:41;;;;;;;8.90;3.93;;;14.20;99.90;;;14.42;62.09;102129.50;4930178;29;20382;-70
2023/05/16 07:32:10;;;;;;;10.35;4.00;;;14.30;99.90;;;14.50;61.40;102134.81;4926442;29;20076;-68
2023/05/16 07:34:38;;;;;;;8.95;4.28;;;14.40;99.90;;;14.28;61.27;102131.28;4930055;29;20052;-68
2023/05/16 07:37:11;;;;;;;11.48;4.10;;;14.20;99.90;;;13.90;62.74;102134.72;4927458;29;20052;-68
2023/05/16 07:39:40;;;;;;;10.02;4.72;;;13.90;99.90;;;14.24;63.86;102125.91;4943250;29;20055;-68
2023/05/16 07:42:09;;;;;;;10.73;4.07;;;14.00;99.90;;;14.30;62.86;102117.97;4928914;29;20092;-68
2023/05/16 07:44:39;;;;;;;10.35;4.55;;;14.10;99.90;;;14.00;64.07;102120.53;4927505;29;20054;-68
2023/05/16 07:47:07;;;;;;;11.37;4.17;;;13.90;99.90;;;13.72;64.81;102126.69;4929855;29;20051;-68
2023/05/16 07:49:36;;;;;;;10.82;4.20;;;13.60;99.90;;;13.96;65.27;102132.06;4926610;29;20520;-68
2023/05/16 07:52:05;;;;;;;14.30;4.65;;;13.70;99.90;;;14.31;64.56;102133.03;4926520;29;20052;-68
2023/05/16 07:54:36;;;;;;;10.55;4.57;;;14.00;99.90;;;14.48;62.68;102144.56;4926948;29;20048;-68
2023/05/16 07:57:05;;;;;;;11.02;4.35;;;14.20;99.90;;;14.44;61.90;102140.13;4943385;29;20052;-68
2023/05/16 07:59:33;;;;;;;8.85;4.22;;;14.20;99.90;;;14.79;61.18;102133.00;4927675;29;20040;-68
2023/05/16 08:02:03;;;;;;;9.43;4.10;;;14.50;99.90;;;14.91;59.80;102140.09;4927967;29;20555;-68
2023/05/16 08:04:32;;;;;;;10.75;4.43;;;14.70;99.90;;;15.12;60.53;102135.59;4928728;29;20486;-68
2023/05/16 08:07:00;;;;;;;7.97;4.65;;;14.90;99.90;;;15.08;59.33;102144.50;4926935;29;20088;-68
2023/05/16 08:09:28;;;;;;;10.57;4.18;;;14.90;99.90;;;15.28;59.98;102149.78;4929761;29;20050;-69
2023/05/16 08:12:02;;;;;;;17.33;4.95;;;15.10;99.90;;;14.80;59.82;102048.66;4929453;29;20043;-68
2023/05/16 08:14:31;;;;;;;10.88;4.03;;;15.20;99.90;;;15.20;58.66;102144.47;4925937;29;20044;-68
2023/05/16 08:17:00;;;;;;;11.23;4.60;;;15.20;99.90;;;15.12;59.93;102148.94;4927174;29;20122;-68
2023/05/16 08:19:31;;;;;;;12.65;4.38;;;15.00;99.90;;;15.15;60.02;102140.94;4927920;29;20492;-68
2023/05/16 08:22:00;;;;;;;9.98;4.40;;;15.10;99.90;;;15.12;59.17;102154.25;4928102;29;20367;-69
2023/05/16 08:24:28;;;;;;;13.38;5.00;;;15.10;99.90;;;14.48;60.56;102159.69;4926353;29;20137;-68
2023/05/16 08:26:57;;;;;;;12.05;4.20;;;14.50;99.90;;;14.61;60.05;102162.34;4928717;29;20076;-68
2023/05/16 08:29:25;;;;;;;12.40;4.93;;;14.50;99.90;;;14.81;60.53;102157.88;4925710;29;20048;-68
2023/05/16 08:31:53;;;;;;;11.82;4.53;;;14.60;99.90;;;14.73;61.37;102159.66;4925473;29;20071;-68
2023/05/16 08:34:22;;;;;;;12.77;4.55;;;14.50;99.90;;;14.82;61.09;102162.31;4925760;29;20047;-68
2023/05/16 08:36:53;;;;;;;10.68;4.10;;;14.60;99.90;;;14.92;61.25;102158.78;4928339;29;20071;-69
2023/05/16 08:39:21;;;;;;;;;;;14.70;99.90;;;14.82;61.50;102154.34;4938614;29;20075;-69
2023/05/16 08:41:50;;;;;;;11.23;4.75;;;14.70;99.90;;;14.33;62.24;102157.88;4927005;29;19923;-69
2023/05/16 08:44:20;;;;;;;10.98;4.65;;;14.40;99.90;;;13.85;63.37;102148.00;4926893;29;20051;-69
2023/05/16 08:46:52;;;;;;;8.90;4.35;;;13.90;99.90;;;13.97;63.39;102152.47;4928371;29;20489;-68
2023/05/16 08:49:21;;;;;;;13.50;4.20;;;13.80;99.90;;;14.11;62.73;102153.41;4925453;29;20044;-68
2023/05/16 08:51:57;;;;;;;7.13;3.85;;;13.80;99.90;;;14.31;62.53;102149.91;4925475;29;20055;-68
2023/05/16 08:54:26;;;;;;;10.05;4.45;;;14.10;99.90;;;14.41;61.44;102145.47;4927400;29;20043;-68
2023/05/16 08:56:56;;;;;;;8.83;3.73;;;14.20;99.90;;;14.71;60.48;102161.41;4927283;29;20576;-68
2023/05/16 08:59:25;;;;;;;12.27;4.13;;;14.50;99.90;;;15.06;60.31;102153.41;4926112;29;20048;-68
2023/05/16 09:01:53;;;;;;;10.55;4.65;;;14.80;99.90;;;15.26;60.99;102159.56;4927649;29;20107;-68
2023/05/16 09:04:24;;;;;;;12.10;4.20;;;15.00;99.90;;;15.12;60.05;102159.59;4939970;29;20060;-68
2023/05/16 09:06:54;;;;;;;14.10;4.50;;;15.00;99.90;;;15.11;60.34;102168.50;4925253;29;20051;-68
2023/05/16 09:09:23;;;;;;;13.25;4.55;;;14.90;99.90;;;15.32;59.75;102165.78;4927896;29;20059;-68
2023/05/16 09:11:52;;;;;;;12.27;4.45;;;15.10;99.90;;;15.18;61.13;102172.03;4926030;29;20466;-68
2023/05/16 09:14:20;;;;;;;9.98;4.20;;;15.00;99.90;;;15.15;60.64;102172.94;4926730;29;20039;-68
2023/05/16 09:17:06;;;;;;;8.88;3.88;;;14.90;99.90;;;14.97;60.70;102174.72;4926742;29;20082;-69
2023/05/16 09:19:40;;;;;;;18.15;4.88;;;14.70;99.90;;;13.96;62.16;102060.22;4925639;29;20462;-69
2023/05/16 09:22:13;;;;;;;20.38;5.38;;;14.40;99.90;;;14.50;63.00;102168.56;4926418;29;20048;-68
2023/05/16 09:24:43;;;;;;;9.90;3.97;;;14.30;99.90;;;14.51;64.22;102168.56;4927089;29;20134;-68
2023/05/16 09:27:14;;;;;;;11.68;4.82;;;14.30;99.90;;;15.06;62.84;102174.72;4924872;29;20044;-69
2023/05/16 09:29:43;;;;;;;12.55;4.78;;;14.70;99.90;;;15.07;61.74;102164.06;4924897;29;20059;-69
2023/05/16 09:32:16;;;;;;;12.18;4.80;;;14.90;99.90;;;14.82;61.32;102164.09;4927374;29;20043;-69
2023/05/16 09:34:47;;;;;;;8.52;3.83;;;14.70;99.90;;;14.90;60.44;102172.97;4925709;29;20048;-69
2023/05/16 09:37:17;;;;;;;9.18;4.40;;;14.70;99.90;;;15.09;59.63;102161.38;4940231;28;20051;-69
2023/05/16 09:39:48;;;;;;;6.57;4.07;;;14.90;99.90;;;15.53;58.82;102177.28;4926921;29;20056;-68
2023/05/16 09:42:18;;;;;;;9.00;3.95;;;15.20;99.90;;;15.90;58.59;102178.88;4938843;29;20077;-68
2023/05/16 09:44:47;;;;;;;10.52;4.18;;;15.60;99.90;;;15.82;57.42;102167.38;4924576;29;20055;-69
2023/05/16 09:47:16;;;;;;;15.23;4.88;;;15.70;99.90;;;16.10;58.07;102182.34;4941585;29;20459;-69
2023/05/16 09:49:45;;;;;;;9.07;4.05;;;15.90;99.90;;;15.57;59.21;102169.25;4939681;29;20477;-68
2023/05/16 09:52:14;;;;;;;12.48;4.57;;;15.60;99.90;;;15.50;59.51;102180.88;4940940;29;20079;-68
2023/05/16 09:54:47;;;;;;;10.60;4.45;;;15.30;99.90;;;15.65;58.82;102186.13;4937515;29;20048;-68
2023/05/16 09:57:19;;;;;;;10.07;4.53;;;15.30;99.90;;;15.37;58.83;102187.97;4926980;29;20051;-68
2023/05/16 09:59:48;;;;;;;9.45;4.20;;;15.30;99.90;;;15.49;59.60;102173.75;4924077;29;20040;-68
2023/05/16 10:02:16;;;;;;;9.48;4.65;;;15.20;99.90;;;15.35;60.43;102180.84;4927091;29;20206;-68
2023/05/16 10:04:45;;;;;;;10.05;4.22;;;15.10;99.90;;;15.60;60.08;102179.03;4924586;29;20048;-68
2023/05/16 10:07:15;;;;;;;11.52;4.55;;;15.30;99.90;;;15.25;60.76;102179.13;4926223;29;20122;-68
2023/05/16 10:09:46;;;;;;;10.98;4.43;;;15.20;99.90;;;15.02;59.64;102187.16;4925593;29;20055;-69
2023/05/16 10:12:15;;;;;;;;;;;14.80;99.90;;;15.57;61.19;102190.59;4925442;29;20043;-68
2023/05/16 10:14:45;;;;;;;11.80;4.07;;;15.20;99.90;;;15.92;58.82;102186.00;4926401;29;19926;-68
2023/05/16 10:17:16;;;;;;;8.60;4.00;;;15.60;99.90;;;16.07;58.40;102187.69;4938382;29;20386;-68